Time;durP1;ratioP1;P1;durP2;ratioP2;P2;SDS_P1;SDS_P2;PMS_P1;PMS_P2;Temp;Humidity;BMP_temperature;BMP_pressure;BME280_temperature;BME280_humidity;BME280_pressure;Samples;Min_cycle;Max_cycle;Signal;HPM_P1;HPM_P2
2024/02/14 00:01:18;;;;;;;4.75;3.05;;;;;;;12.70;64.04;98312.41;5051835;28;20130;-79
2024/02/14 00:03:43;;;;;;;5.43;3.50;;;;;;;12.68;63.81;98314.31;5051292;28;20029;-81
2024/02/14 00:06:09;;;;;;;5.00;3.42;;;;;;;12.66;64.02;98314.44;5018324;28;20098;-78
2024/02/14 00:08:34;;;;;;;5.97;3.78;;;;;;;12.70;63.94;98314.16;5034261;28;20060;-79
2024/02/14 00:11:00;;;;;;;6.80;4.53;;;;;;;12.70;64.21;98316.78;5034512;28;20036;-79
2024/02/14 00:13:25;;;;;;;7.10;4.43;;;;;;;12.70;63.73;98327.25;5050326;28;20044;-76
2024/02/14 00:15:51;;;;;;;8.25;4.28;;;;;;;12.65;63.95;98322.44;5034196;28;20120;-79
2024/02/14 00:18:16;;;;;;;6.63;4.60;;;;;;;12.65;64.07;98325.06;5051081;28;20029;-79
2024/02/14 00:20:42;;;;;;;7.82;5.07;;;;;;;12.66;64.04;98330.16;5050869;28;20063;-80
2024/02/14 00:23:07;;;;;;;7.00;4.57;;;;;;;12.66;63.87;98332.78;5017876;28;20044;-80
2024/02/14 00:25:33;;;;;;;6.63;4.70;;;;;;;12.69;64.17;98330.88;5050987;28;20079;-79
2024/02/14 00:28:00;;;;;;;6.95;4.50;;;;;;;12.66;63.87;98329.34;5051257;28;20024;-79
2024/02/14 00:30:26;;;;;;;7.80;4.85;;;;;;;12.65;63.99;98330.31;5034645;28;20403;-77
2024/02/14 00:32:52;;;;;;;6.85;5.05;;;;;;;12.63;64.15;98333.09;5017893;28;20041;-78
2024/02/14 00:35:17;;;;;;;6.32;4.25;;;;;;;12.61;64.12;98324.53;5051167;28;20029;-78
2024/02/14 00:37:43;;;;;;;7.53;4.75;;;;;;;12.64;64.19;98333.91;5034396;28;20090;-79
2024/02/14 00:40:09;;;;;;;7.35;4.95;;;;;;;12.58;63.84;98321.38;5033684;28;20032;-79
2024/02/14 00:42:34;;;;;;;6.60;4.25;;;;;;;12.61;64.13;98332.38;5034391;28;20061;-78
2024/02/14 00:45:00;;;;;;;8.43;4.55;;;;;;;12.62;63.84;98336.66;5050538;28;20087;-77
2024/02/14 00:47:25;;;;;;;6.93;4.50;;;;;;;12.62;64.12;98326.19;5034152;28;20028;-78
2024/02/14 00:49:51;;;;;;;6.55;4.20;;;;;;;12.61;64.05;98328.94;5033943;28;20108;-79
2024/02/14 00:52:17;;;;;;;6.05;4.07;;;;;;;12.58;64.12;98330.03;5050771;28;20024;-79
2024/02/14 00:54:42;;;;;;;6.15;4.03;;;;;;;12.62;63.80;98338.47;5033308;28;20086;-78
2024/02/14 00:57:08;;;;;;;6.05;3.38;;;;;;;12.61;63.80;98335.00;5017903;28;20436;-79
2024/02/14 00:59:34;;;;;;;5.47;3.80;;;;;;;12.59;63.79;98339.56;5051892;28;20033;-79
2024/02/14 01:01:59;;;;;;;5.38;3.72;;;;;;;12.61;63.85;98347.28;5033884;28;20033;-77
2024/02/14 01:04:25;;;;;;;6.00;3.90;;;;;;;12.60;63.73;98340.38;5033536;28;20505;-79
2024/02/14 01:06:51;;;;;;;5.78;3.92;;;;;;;12.54;63.78;98339.16;5034155;28;20116;-79
2024/02/14 01:09:18;;;;;;;5.35;3.70;;;;;;;12.54;63.52;98347.00;5034131;28;20476;-79
2024/02/14 01:11:44;;;;;;;5.30;3.88;;;;;;;12.54;63.65;98343.53;5034267;28;20021;-79
2024/02/14 01:14:09;;;;;;;6.47;3.65;;;;;;;12.54;63.61;98352.25;5017818;28;20102;-79
2024/02/14 01:16:42;;;;;;;6.68;3.55;;;;;;;12.55;63.58;98356.50;5033730;28;20211;-79
2024/02/14 01:19:07;;;;;;;5.75;3.72;;;;;;;12.54;63.36;98349.63;5017202;28;20456;-80
2024/02/14 01:21:33;;;;;;;5.78;3.70;;;;;;;12.53;63.55;98352.38;5034128;28;20055;-79
2024/02/14 01:23:58;;;;;;;5.72;3.90;;;;;;;12.53;63.50;98355.00;5050734;28;20459;-78
2024/02/14 01:26:24;;;;;;;5.95;3.92;;;;;;;12.53;63.44;98357.63;5033793;28;20025;-79
2024/02/14 01:28:49;;;;;;;5.15;3.35;;;;;;;12.53;63.19;98360.25;5016685;28;20463;-80
2024/02/14 01:31:15;;;;;;;5.25;3.40;;;;;;;12.52;63.48;98356.78;5033321;28;20033;-78
2024/02/14 01:33:40;;;;;;;5.47;3.17;;;;;;;12.48;63.43;98350.19;5017073;28;20041;-81
2024/02/14 01:36:06;;;;;;;6.45;3.83;;;;;;;12.50;63.28;98356.09;5016932;28;20405;-79
2024/02/14 01:38:35;;;;;;;5.65;3.58;;;;;;;12.51;63.23;98360.38;5033223;28;20029;-78
2024/02/14 01:41:02;;;;;;;5.57;3.70;;;;;;;12.49;63.24;98360.53;5033989;28;20516;-79
2024/02/14 01:43:28;;;;;;;4.88;3.20;;;;;;;12.50;63.21;98356.09;5033348;28;20040;-79
2024/02/14 01:45:53;;;;;;;5.88;3.05;;;;;;;12.49;63.21;98360.53;5033648;28;20037;-77
2024/02/14 01:48:20;;;;;;;4.80;3.25;;;;;;;12.49;63.32;98367.53;5050347;28;20037;-81
2024/02/14 01:50:46;;;;;;;5.05;3.13;;;;;;;12.49;63.17;98359.66;5017643;28;20029;-78
2024/02/14 01:53:11;;;;;;;4.68;3.25;;;;;;;12.48;63.60;98364.09;5033464;28;20051;-78
2024/02/14 01:55:37;;;;;;;5.22;3.13;;;;;;;12.48;63.52;98360.66;5017253;28;20029;-79
2024/02/14 01:58:04;;;;;;;5.30;3.30;;;;;;;12.47;63.37;98366.84;5050347;28;20033;-79
2024/02/14 02:00:31;;;;;;;6.00;3.40;;;;;;;12.43;63.51;98352.38;5033527;28;20071;-79
2024/02/14 02:02:57;;;;;;;5.65;3.47;;;;;;;12.46;63.46;98359.94;5017523;28;20033;-78
2024/02/14 02:05:22;;;;;;;7.22;3.78;;;;;;;12.46;63.46;98367.81;5033928;28;20105;-77
2024/02/14 02:07:48;;;;;;;5.82;3.50;;;;;;;12.45;63.33;98371.41;5036572;28;20040;-78
2024/02/14 02:10:14;;;;;;;5.13;3.30;;;;;;;12.45;63.32;98374.03;5037355;28;20029;-75
2024/02/14 02:12:39;;;;;;;5.60;3.38;;;;;;;12.44;63.14;98377.59;5037075;28;20547;-75
2024/02/14 02:15:13;;;;;;;6.53;3.78;;;;;;;12.40;63.40;98369.19;5053159;28;20045;-76
2024/02/14 02:17:39;;;;;;;5.10;3.30;;;;;;;12.42;63.19;98380.34;5021719;28;20048;-78
2024/02/14 02:20:07;;;;;;;5.55;3.40;;;;;;;12.39;63.21;98375.38;5036975;28;20021;-77
2024/02/14 02:22:35;;;;;;;4.38;3.33;;;;;;;12.39;63.18;98375.38;5037315;28;20033;-78
2024/02/14 02:25:01;;;;;;;4.68;3.35;;;;;;;12.41;63.09;98383.09;5053730;28;20029;-78
2024/02/14 02:27:27;;;;;;;5.50;3.38;;;;;;;12.38;63.33;98378.97;5053446;28;20036;-78
2024/02/14 02:29:52;;;;;;;4.82;3.00;;;;;;;12.39;63.01;98383.22;5020234;28;20033;-77
2024/02/14 02:32:18;;;;;;;5.60;3.25;;;;;;;12.42;63.06;98385.59;5036618;28;20025;-77
2024/02/14 02:34:45;;;;;;;5.55;3.20;;;;;;;12.42;63.22;98397.84;5053239;28;20029;-77
2024/02/14 02:37:11;;;;;;;5.35;3.20;;;;;;;12.37;63.42;98393.03;5052816;28;20488;-78
2024/02/14 02:39:37;;;;;;;5.50;3.40;;;;;;;12.41;63.22;98404.03;5036648;28;20439;-78
2024/02/14 02:42:03;;;;;;;4.43;2.92;;;;;;;12.39;63.10;98404.19;5036672;28;20104;-77
2024/02/14 02:44:29;;;;;;;5.75;2.90;;;;;;;12.39;63.26;98412.03;5052981;28;20052;-77
2024/02/14 02:46:55;;;;;;;4.60;3.05;;;;;;;12.37;63.05;98416.59;5036340;28;20024;-77
2024/02/14 02:49:21;;;;;;;4.85;2.85;;;;;;;12.37;63.38;98419.19;5052943;28;20032;-78
2024/02/14 02:51:47;;;;;;;5.68;2.97;;;;;;;12.33;63.21;98411.75;5036324;28;20025;-78
2024/02/14 02:54:13;;;;;;;4.57;3.05;;;;;;;12.34;63.23;98416.84;5019784;28;20033;-77
2024/02/14 02:56:40;;;;;;;5.03;3.22;;;;;;;12.34;63.15;98419.47;5052355;28;20086;-79
2024/02/14 02:59:06;;;;;;;4.80;2.95;;;;;;;12.33;63.37;98417.00;5035600;28;20045;-80
2024/02/14 03:01:35;;;;;;;5.43;3.50;;;;;;;12.32;62.96;98421.41;5052600;28;20077;-77
2024/02/14 03:04:01;;;;;;;5.00;3.40;;;;;;;12.31;63.13;98417.94;5035941;28;20041;-78
2024/02/14 03:06:27;;;;;;;4.88;3.08;;;;;;;12.30;63.25;98424.16;5019563;28;20035;-78
2024/02/14 03:08:55;;;;;;;6.68;3.83;;;;;;;12.31;63.40;98422.34;5036122;28;20029;-78
2024/02/14 03:11:20;;;;;;;5.63;3.53;;;;;;;12.27;63.22;98423.56;5052044;28;20025;-77
2024/02/14 03:13:48;;;;;;;4.78;3.30;;;;;;;12.22;63.08;98412.69;5035768;28;20056;-77
2024/02/14 03:16:14;;;;;;;5.60;3.28;;;;;;;12.25;63.20;98421.09;5036800;28;20067;-78
2024/02/14 03:18:40;;;;;;;5.53;3.40;;;;;;;12.24;63.05;98427.31;5034953;28;20068;-78
2024/02/14 03:21:06;;;;;;;5.15;3.13;;;;;;;12.23;63.06;98419.59;5052511;28;20069;-79
2024/02/14 03:23:39;;;;;;;5.00;3.60;;;;;;;12.24;63.03;98439.56;5019105;28;20033;-79
2024/02/14 03:26:07;;;;;;;4.85;3.35;;;;;;;12.22;63.41;98433.63;5037018;28;20033;-78
2024/02/14 03:28:33;;;;;;;5.07;3.15;;;;;;;12.20;63.30;98430.34;5052324;28;20428;-78
2024/02/14 03:30:58;;;;;;;4.95;2.80;;;;;;;12.25;63.34;98443.84;5019477;28;20029;-77
2024/02/14 03:33:24;;;;;;;4.85;2.92;;;;;;;12.19;63.13;98432.13;5052370;28;20341;-77
2024/02/14 03:35:50;;;;;;;4.43;2.90;;;;;;;12.22;63.18;98438.88;5035544;28;20448;-78
2024/02/14 03:38:27;;;;;;;4.55;3.10;;;;;;;12.22;63.18;98442.31;5035713;28;20036;-79
2024/02/14 03:40:53;;;;;;;4.28;2.75;;;;;;;12.18;62.95;98445.34;5035827;28;20032;-78
2024/02/14 03:43:19;;;;;;;4.28;2.65;;;;;;;12.21;63.25;98447.69;5035485;28;20063;-77
2024/02/14 03:45:46;;;;;;;4.07;2.75;;;;;;;12.19;63.11;98452.22;5035615;28;20500;-78
2024/02/14 03:48:12;;;;;;;4.15;2.65;;;;;;;12.15;63.34;98443.81;5019022;28;20090;-79
2024/02/14 03:50:40;;;;;;;4.40;2.80;;;;;;;12.19;62.98;98449.59;5035725;28;20029;-79
2024/02/14 03:53:06;;;;;;;4.40;3.00;;;;;;;12.19;62.98;98454.84;5018241;28;20456;-77
2024/02/14 03:55:31;;;;;;;5.35;3.03;;;;;;;12.15;63.00;98450.84;5018391;28;20029;-79
2024/02/14 03:57:57;;;;;;;4.63;3.13;;;;;;;12.17;63.35;98454.97;5051236;28;20465;-78
2024/02/14 04:00:22;;;;;;;5.78;3.38;;;;;;;12.12;63.07;98446.69;5050446;28;20036;-78
2024/02/14 04:02:48;;;;;;;5.10;3.15;;;;;;;12.12;62.89;98446.69;5018416;28;20538;-77
2024/02/14 04:05:14;;;;;;;6.05;3.92;;;;;;;12.13;62.85;98457.03;5035553;28;20120;-76
2024/02/14 04:07:40;;;;;;;7.00;4.20;;;;;;;12.12;62.86;98457.97;5051530;28;20167;-78
2024/02/14 04:10:06;;;;;;;7.00;4.38;;;;;;;12.11;63.21;98461.59;5018226;28;20389;-78
2024/02/14 04:12:32;;;;;;;7.15;4.60;;;;;;;12.11;63.29;98463.34;5051924;28;20108;-78
2024/02/14 04:14:57;;;;;;;8.18;4.63;;;;;;;12.11;62.98;98465.97;5018606;28;20075;-78
2024/02/14 04:17:24;;;;;;;6.38;4.18;;;;;;;12.10;62.96;98466.94;5017930;28;20033;-77
2024/02/14 04:19:50;;;;;;;6.38;4.22;;;;;;;12.04;63.19;98459.63;5034821;28;20159;-78
2024/02/14 04:22:15;;;;;;;7.90;5.20;;;;;;;12.07;63.04;98468.03;5018094;28;20040;-78
2024/02/14 04:24:41;;;;;;;8.15;5.10;;;;;;;12.01;63.02;98458.09;5014267;28;20048;-78
2024/02/14 04:27:06;;;;;;;8.45;5.35;;;;;;;12.04;63.21;98468.28;4998489;28;20500;-78
2024/02/14 04:29:33;;;;;;;8.80;5.60;;;;;;;12.04;63.17;98468.28;5014624;28;20025;-77
2024/02/14 04:32:02;;;;;;;10.65;5.90;;;;;;;12.01;63.06;98468.56;4998351;28;20030;-78
2024/02/14 04:34:28;;;;;;;9.10;5.43;;;;;;;12.02;63.29;98470.22;5015603;28;20029;-79
2024/02/14 04:36:53;;;;;;;9.80;6.15;;;;;;;11.99;62.99;98467.06;5017670;28;20036;-81
2024/02/14 04:39:19;;;;;;;8.60;5.88;;;;;;;12.00;63.26;98476.53;5034228;28;20094;-82
2024/02/14 04:41:44;;;;;;;9.48;6.30;;;;;;;11.98;63.44;98479.28;5034787;28;20110;-78
2024/02/14 04:44:10;;;;;;;9.43;5.75;;;;;;;11.98;63.42;98481.09;5052419;28;20060;-83
2024/02/14 04:46:36;;;;;;;7.32;5.00;;;;;;;12.04;66.00;98486.59;5018254;28;20104;-80
2024/02/14 04:49:04;;;;;;;7.35;3.97;;;;;;;12.09;67.16;98492.25;5017782;28;20429;-79
2024/02/14 04:51:32;;;;;;;;;;;;;;;12.15;68.56;98495.34;5018040;28;20090;-82
2024/02/14 04:54:01;;;;;;;8.43;3.92;;;;;;;12.12;67.68;98494.63;5050853;28;19936;-84
2024/02/14 04:56:27;;;;;;;7.90;4.75;;;;;;;12.07;67.37;98480.28;5034747;28;20048;-82
2024/02/14 04:58:53;;;;;;;9.70;5.82;;;;;;;12.04;66.77;98489.22;5034040;28;20032;-83
2024/02/14 05:01:19;;;;;;;10.73;6.22;;;;;;;12.07;66.42;98502.03;5035571;28;20094;-83
2024/02/14 05:03:44;;;;;;;9.68;5.90;;;;;;;12.06;65.81;98502.19;5055597;28;20439;-88
2024/02/14 05:06:09;;;;;;;10.68;6.32;;;;;;;12.05;65.94;98506.59;5051241;28;20055;-89
2024/02/14 05:08:35;;;;;;;13.60;7.15;;;;;;;12.03;65.40;98512.91;5051737;28;20037;-86
2024/02/14 05:11:00;;;;;;;13.77;5.68;;;;;;;12.06;67.52;98515.25;5017955;28;20048;-83
2024/02/14 05:13:26;;;;;;;10.02;5.07;;;;;;;12.06;66.72;98518.69;5051031;28;20036;-82
2024/02/14 05:15:51;;;;;;;8.70;4.97;;;;;;;12.02;66.46;98517.31;5035697;28;20033;-82
2024/02/14 05:18:17;;;;;;;9.57;3.20;;;;;;;12.19;70.98;98535.97;5051767;28;20044;-80
2024/02/14 05:20:42;;;;;;;10.57;3.60;;;;;;;12.19;69.27;98526.34;5034149;28;20040;-83
2024/02/14 05:23:09;;;;;;;13.32;3.17;;;;;;;12.27;71.15;98531.72;5057006;28;20032;-81
2024/02/14 05:25:34;;;;;;;6.38;2.10;;;;;;;12.33;71.77;98540.81;5034298;28;20037;-77
2024/02/14 05:28:00;;;;;;;12.68;2.88;;;;;;;12.28;70.87;98535.97;5050684;28;20428;-80
2024/02/14 05:30:26;;;;;;;4.90;2.20;;;;;;;12.30;70.02;98551.56;5050812;28;20032;-87
2024/02/14 05:32:52;;;;;;;4.85;2.65;;;;;;;12.22;69.25;98546.97;5035279;28;20431;-89
2024/02/14 05:35:18;;;;;;;7.75;2.22;;;;;;;12.23;68.26;98560.91;5049755;28;20036;-89
2024/02/14 05:37:43;;;;;;;4.05;2.13;;;;;;;12.18;68.31;98550.84;5018230;28;20028;-88
2024/02/14 05:40:09;;;;;;;7.10;2.17;;;;;;;12.21;68.05;98570.69;5034606;28;20025;-88
2024/02/14 05:42:34;;;;;;;5.25;2.20;;;;;;;12.20;67.79;98579.50;5038180;28;20385;-90
2024/02/14 05:45:00;;;;;;;4.15;2.13;;;;;;;12.13;67.22;98569.53;5054898;28;20049;-90
2024/02/14 05:47:26;;;;;;;3.63;2.00;;;;;;;12.18;67.14;98578.81;5055194;28;20028;-87
2024/02/14 05:49:51;;;;;;;4.53;1.90;;;;;;;12.18;67.13;98586.66;5021861;28;20036;-89
2024/02/14 05:52:18;;;;;;;4.75;1.95;;;;;;;12.12;66.86;98578.34;5055095;28;20408;-80
2024/02/14 05:54:43;;;;;;;4.03;1.98;;;;;;;12.12;66.70;98586.19;5039446;28;20495;-89
2024/02/14 05:57:09;;;;;;;8.23;2.30;;;;;;;12.16;66.34;98601.63;5021559;28;20029;-87
2024/02/14 05:59:34;;;;;;;5.75;2.90;;;;;;;12.15;66.12;98598.19;5057582;28;20033;-87
2024/02/14 06:02:02;;;;;;;6.47;2.45;;;;;;;12.17;66.15;98611.16;5053567;28;20472;-88
2024/02/14 06:04:28;;;;;;;4.18;2.65;;;;;;;12.15;65.69;98613.91;5052953;28;20035;-88
2024/02/14 06:06:53;;;;;;;4.18;2.38;;;;;;;12.17;65.65;98613.78;5019880;28;20033;-87
2024/02/14 06:09:19;;;;;;;3.28;2.10;;;;;;;12.13;65.57;98607.97;5052638;28;20049;-88
2024/02/14 06:11:44;;;;;;;6.10;2.28;;;;;;;12.15;65.16;98607.84;5052932;28;20078;-89
2024/02/14 06:14:10;;;;;;;6.35;2.47;;;;;;;12.17;64.64;98614.59;5037430;28;20345;-86
2024/02/14 06:16:35;;;;;;;4.47;2.08;;;;;;;12.18;64.35;98620.66;5037389;28;20080;-89
2024/02/14 06:19:04;;;;;;;4.30;2.30;;;;;;;12.17;64.47;98625.06;5038172;28;20039;-89
2024/02/14 06:21:29;;;;;;;4.35;2.30;;;;;;;12.15;63.78;98629.59;5023926;28;20099;-90
2024/02/14 06:23:55;;;;;;;4.07;2.35;;;;;;;12.16;64.12;98627.81;5038586;28;20048;-89
2024/02/14 06:26:20;;;;;;;4.68;2.20;;;;;;;12.20;63.80;98642.28;5039180;28;20400;-88
2024/02/14 06:28:46;;;;;;;3.60;2.08;;;;;;;12.16;63.62;98633.03;5039748;28;20041;-89
2024/02/14 06:31:12;;;;;;;4.25;2.30;;;;;;;12.16;63.08;98639.13;5039490;28;20114;-90
2024/02/14 06:33:37;;;;;;;4.60;2.35;;;;;;;12.19;63.22;98636.25;5057652;28;20029;-89
2024/02/14 06:36:03;;;;;;;5.05;2.60;;;;;;;12.22;62.92;98648.22;5039448;28;20557;-89
2024/02/14 06:38:28;;;;;;;5.75;1.90;;;;;;;12.23;62.65;98648.09;5039224;28;20060;-90
2024/02/14 06:40:54;;;;;;;5.03;1.98;;;;;;;12.25;62.64;98651.41;5056073;28;20033;-88
2024/02/14 06:43:19;;;;;;;3.50;1.90;;;;;;;12.24;62.63;98641.91;5054997;28;20480;-89
2024/02/14 06:45:45;;;;;;;2.63;1.67;;;;;;;12.29;62.33;98647.56;5039233;28;20032;-89
2024/02/14 06:48:12;;;;;;;2.63;1.67;;;;;;;12.33;62.12;98656.00;5061994;28;20106;-89
2024/02/14 06:50:38;;;;;;;3.10;1.83;;;;;;;12.36;61.55;98660.97;5062373;28;20032;-88
2024/02/14 06:53:04;;;;;;;9.13;5.85;;;;;;;12.36;61.99;98653.13;5056118;28;20032;-90
2024/02/14 06:55:32;;;;;;;16.33;9.27;;;;;;;12.42;61.70;98659.63;5056186;28;20025;-88
2024/02/14 06:57:59;;;;;;;21.17;10.90;;;;;;;12.42;61.75;98662.25;5057263;28;20101;-93
2024/02/14 07:00:24;;;;;;;18.67;11.02;;;;;;;12.49;61.14;98668.59;5057521;28;20045;-91
2024/02/14 07:02:50;;;;;;;16.25;11.05;;;;;;;12.51;61.30;98663.22;5056337;28;20041;-89
2024/02/14 07:05:15;;;;;;;18.15;11.85;;;;;;;12.58;61.24;98664.38;5057196;28;20049;-90
2024/02/14 07:07:41;;;;;;;18.92;12.57;;;;;;;12.61;60.81;98666.75;5039336;28;20520;-90
2024/02/14 07:10:07;;;;;;;18.73;12.45;;;;;;;12.61;60.56;98661.50;5040288;28;20029;-90
2024/02/14 07:12:33;;;;;;;18.88;12.48;;;;;;;12.69;60.59;98672.13;5055572;28;20033;-89
2024/02/14 07:14:58;;;;;;;20.50;13.07;;;;;;;12.73;60.34;98675.31;5022701;28;20115;-90
2024/02/14 07:17:24;;;;;;;18.17;12.48;;;;;;;12.73;60.38;98677.94;5040232;28;20029;-90
2024/02/14 07:19:49;;;;;;;17.90;12.00;;;;;;;12.75;59.93;98682.09;5023725;28;20041;-90
2024/02/14 07:22:20;;;;;;;16.77;11.48;;;;;;;12.81;59.94;98699.09;5041326;28;20029;-88
2024/02/14 07:24:46;;;;;;;17.40;10.70;;;;;;;12.82;60.02;98696.31;5057809;28;20029;-89
2024/02/14 07:27:12;;;;;;;20.65;10.88;;;;;;;12.83;59.50;98692.72;5041780;28;20040;-83
2024/02/14 07:29:38;;;;;;;16.33;10.30;;;;;;;12.84;59.19;98694.41;5052171;28;20040;-84
2024/02/14 07:32:03;;;;;;;14.57;9.50;;;;;;;12.87;59.20;98700.31;5052730;28;20037;-84
2024/02/14 07:34:29;;;;;;;17.70;9.02;;;;;;;12.83;59.06;98700.59;5036711;28;20039;-84
2024/02/14 07:36:54;;;;;;;12.23;8.48;;;;;;;12.84;59.13;98710.13;5037093;28;20032;-85
2024/02/14 07:39:20;;;;;;;12.65;8.20;;;;;;;12.88;58.81;98712.47;5036144;28;20025;-83
2024/02/14 07:41:46;;;;;;;12.20;7.90;;;;;;;12.89;59.07;98720.19;5035652;28;20048;-82
2024/02/14 07:44:11;;;;;;;12.15;7.70;;;;;;;12.89;58.84;98722.81;5053757;28;20467;-88
2024/02/14 07:46:37;;;;;;;10.45;6.53;;;;;;;12.91;58.83;98720.06;5044358;28;20029;-89
2024/02/14 07:49:04;;;;;;;11.35;6.85;;;;;;;12.93;58.55;98723.38;5020723;28;20056;-89
2024/02/14 07:51:36;;;;;;;9.48;6.45;;;;;;;12.89;58.47;98724.59;5056216;28;20485;-88
2024/02/14 07:54:02;;;;;;;8.82;6.18;;;;;;;12.96;58.20;98723.94;5039834;28;20041;-87
2024/02/14 07:56:29;;;;;;;10.20;5.53;;;;;;;12.96;58.08;98723.94;5054918;28;20037;-88
2024/02/14 07:58:55;;;;;;;8.90;5.80;;;;;;;12.97;58.11;98736.09;5055971;28;20091;-88
2024/02/14 08:01:20;;;;;;;7.15;4.88;;;;;;;12.97;57.90;98730.03;5058254;28;20028;-89
2024/02/14 08:03:46;;;;;;;9.48;5.05;;;;;;;13.00;57.72;98740.25;5038821;28;20076;-86
2024/02/14 08:06:12;;;;;;;8.02;4.80;;;;;;;12.96;57.52;98747.50;5064890;28;20052;-87
2024/02/14 08:08:37;;;;;;;6.88;4.63;;;;;;;12.98;57.66;98750.84;5059170;28;20025;-90
2024/02/14 08:11:03;;;;;;;8.05;4.57;;;;;;;13.03;57.11;98756.53;5023520;28;20048;-88
2024/02/14 08:13:29;;;;;;;6.13;4.15;;;;;;;13.08;57.14;98763.13;5038367;28;20488;-88
2024/02/14 08:15:54;;;;;;;9.65;6.10;;;;;;;13.10;56.89;98751.56;5055668;28;20025;-88
2024/02/14 08:18:20;;;;;;;11.55;6.97;;;;;;;13.17;56.95;98760.56;5037382;28;20092;-88
2024/02/14 08:20:45;;;;;;;14.23;8.73;;;;;;;13.22;56.58;98760.19;5020440;28;20456;-87
2024/02/14 08:23:11;;;;;;;11.93;8.70;;;;;;;13.28;56.67;98758.81;5053707;28;20032;-88
2024/02/14 08:25:36;;;;;;;12.93;9.30;;;;;;;13.32;56.18;98773.31;5036737;28;20064;-88
2024/02/14 08:28:02;;;;;;;15.48;9.73;;;;;;;13.34;56.39;98772.22;5020662;28;20111;-89
2024/02/14 08:30:28;;;;;;;14.90;9.73;;;;;;;13.36;56.24;98772.94;5036863;28;20472;-86
2024/02/14 08:32:53;;;;;;;16.23;10.90;;;;;;;13.37;56.36;98773.75;5054117;28;20032;-88
2024/02/14 08:35:19;;;;;;;14.63;9.95;;;;;;;13.36;56.05;98775.56;5020651;28;20029;-87
2024/02/14 08:37:44;;;;;;;15.55;10.32;;;;;;;13.36;55.71;98770.31;5036067;28;20480;-87
2024/02/14 08:40:12;;;;;;;16.83;10.15;;;;;;;13.26;55.83;98760.72;5018823;28;20028;-86
2024/02/14 08:42:38;;;;;;;16.10;10.77;;;;;;;13.32;55.86;98776.75;5036196;28;20064;-87
2024/02/14 08:45:04;;;;;;;14.93;9.90;;;;;;;13.37;55.84;98794.75;5019195;28;20478;-87
2024/02/14 08:47:29;;;;;;;14.80;10.25;;;;;;;13.37;55.56;98792.13;5018735;28;20021;-86
2024/02/14 08:49:55;;;;;;;14.35;9.95;;;;;;;13.38;55.68;98791.97;5035579;28;20039;-87
2024/02/14 08:52:21;;;;;;;13.55;9.43;;;;;;;13.39;55.45;98793.66;5034759;28;20033;-87
2024/02/14 08:54:49;;;;;;;16.23;10.52;;;;;;;13.38;55.23;98783.28;5018501;28;20083;-87
2024/02/14 08:57:14;;;;;;;15.45;11.00;;;;;;;13.45;55.33;98794.06;5035664;28;20104;-86
2024/02/14 08:59:43;;;;;;;15.93;11.23;;;;;;;13.43;55.03;98796.81;5018205;28;20091;-85
2024/02/14 09:02:08;;;;;;;;;;;;;;;13.47;55.12;98803.47;5051338;28;20060;-84
2024/02/14 09:04:37;;;;;;;14.63;10.10;;;;;;;13.41;55.21;98790.91;5051495;28;20344;-85
2024/02/14 09:07:03;;;;;;;;;;;;;;;13.47;54.83;98800.84;5018572;28;20040;-84
2024/02/14 09:09:31;;;;;;;13.73;8.88;;;;;;;13.45;54.80;98802.75;5050559;28;19925;-86
2024/02/14 09:11:57;;;;;;;13.60;8.98;;;;;;;13.48;54.84;98807.75;5017605;28;20124;-84
2024/02/14 09:14:23;;;;;;;14.07;9.40;;;;;;;13.51;54.81;98802.22;5034380;28;20041;-84
2024/02/14 09:16:48;;;;;;;13.65;9.35;;;;;;;13.54;54.36;98806.38;5033386;28;20079;-85
2024/02/14 09:19:17;;;;;;;13.23;9.38;;;;;;;13.55;54.62;98801.00;5034088;28;20106;-85
2024/02/14 09:21:44;;;;;;;;;;;;;;;13.59;54.50;98804.19;5051343;28;20090;-84
2024/02/14 09:24:11;;;;;;;14.38;8.90;;;;;;;13.55;54.43;98797.53;5034295;28;19940;-85
2024/02/14 09:26:38;;;;;;;15.60;9.85;;;;;;;13.59;54.25;98800.75;5034493;28;20040;-86
2024/02/14 09:29:06;;;;;;;12.30;8.52;;;;;;;13.58;54.28;98797.25;5034716;28;20037;-85
2024/02/14 09:31:31;;;;;;;13.15;9.13;;;;;;;13.60;54.50;98807.63;5035974;28;20068;-86
2024/02/14 09:33:58;;;;;;;12.70;8.70;;;;;;;13.55;54.21;98798.38;5019048;28;20472;-85
2024/02/14 09:36:24;;;;;;;13.25;8.63;;;;;;;13.56;53.89;98797.41;5034705;28;20381;-85
2024/02/14 09:38:51;;;;;;;12.05;8.02;;;;;;;13.61;53.98;98804.03;5014501;28;20033;-85
2024/02/14 09:41:30;;;;;;;11.52;7.63;;;;;;;13.62;53.75;98803.09;5031366;28;20073;-86
2024/02/14 09:43:56;;;;;;;10.43;6.82;;;;;;;13.60;53.90;98803.22;4999618;28;20073;-86
2024/02/14 09:46:23;;;;;;;10.43;6.88;;;;;;;13.64;53.77;98799.34;5014788;28;20041;-88
2024/02/14 09:48:49;;;;;;;10.85;6.80;;;;;;;13.69;53.42;98801.56;5015699;28;20048;-87
2024/02/14 09:51:15;;;;;;;9.35;6.40;;;;;;;13.68;53.33;98798.13;5031831;28;20042;-86
2024/02/14 09:53:40;;;;;;;9.20;5.93;;;;;;;13.74;53.12;98796.75;4998668;28;20036;-84
2024/02/14 09:56:06;;;;;;;8.68;5.90;;;;;;;13.81;52.87;98802.31;5015003;28;20454;-86
2024/02/14 09:58:32;;;;;;;9.15;5.40;;;;;;;13.84;52.88;98789.72;5014691;28;20462;-88
2024/02/14 10:00:57;;;;;;;7.45;4.80;;;;;;;13.92;52.32;98789.88;4999183;28;20040;-88
2024/02/14 10:03:23;;;;;;;6.93;4.60;;;;;;;13.96;51.94;98785.16;5031585;28;20152;-87
2024/02/14 10:05:48;;;;;;;6.63;4.30;;;;;;;14.05;51.78;98794.03;4998178;28;20557;-85
2024/02/14 10:08:16;;;;;;;6.22;4.40;;;;;;;14.10;51.65;98792.66;4997775;28;20077;-85
2024/02/14 10:10:42;;;;;;;5.47;3.78;;;;;;;14.14;51.45;98789.72;5020843;28;20041;-85
2024/02/14 10:13:07;;;;;;;5.93;3.90;;;;;;;14.13;51.30;98778.41;5007616;28;20033;-84
2024/02/14 10:15:33;;;;;;;7.32;4.03;;;;;;;14.20;51.20;98776.91;5019461;28;20481;-83
2024/02/14 10:18:03;;;;;;;5.88;4.40;;;;;;;14.20;51.10;98776.03;5015796;28;20037;-84
2024/02/14 10:20:30;;;;;;;5.03;3.28;;;;;;;14.25;51.04;98784.34;5000794;28;20036;-86
2024/02/14 10:23:04;;;;;;;5.55;3.53;;;;;;;14.27;51.02;98782.41;4999490;28;20052;-85
2024/02/14 10:25:33;;;;;;;5.40;3.58;;;;;;;14.23;51.11;98774.00;5030962;28;20041;-86
2024/02/14 10:28:10;;;;;;;4.90;3.50;;;;;;;14.29;50.88;98777.84;5001168;28;20033;-84
2024/02/14 10:30:37;;;;;;;6.50;4.50;;;;;;;14.37;50.92;98777.16;5034282;28;20022;-86
2024/02/14 10:33:03;;;;;;;6.80;4.85;;;;;;;14.40;50.70;98780.31;5017553;28;20034;-85
2024/02/14 10:35:31;;;;;;;8.55;5.75;;;;;;;14.43;50.52;98773.97;5017222;28;20120;-86
2024/02/14 10:38:01;;;;;;;9.83;6.60;;;;;;;14.49;50.52;98770.78;5035097;28;20037;-87
2024/02/14 10:40:31;;;;;;;7.35;5.82;;;;;;;14.59;50.63;98774.19;5002343;28;20355;-84
2024/02/14 10:42:58;;;;;;;9.65;6.38;;;;;;;14.64;50.25;98779.06;5002153;28;20034;-86
2024/02/14 10:45:26;;;;;;;8.80;6.15;;;;;;;14.65;50.29;98771.03;5018889;28;20079;-85
2024/02/14 10:47:52;;;;;;;8.55;5.72;;;;;;;14.68;50.25;98774.38;5002152;28;20041;-90
2024/02/14 10:50:18;;;;;;;9.57;6.60;;;;;;;14.63;50.15;98769.53;5018637;28;20127;-84
2024/02/14 10:52:48;;;;;;;8.60;6.20;;;;;;;14.66;50.16;98774.50;5001159;28;20508;-84
2024/02/14 10:55:14;;;;;;;8.50;6.10;;;;;;;14.58;50.31;98769.94;5019514;28;20083;-85
2024/02/14 10:57:41;;;;;;;10.55;6.35;;;;;;;14.66;49.90;98782.38;5016546;28;20037;-85
2024/02/14 11:00:13;;;;;;;9.52;6.05;;;;;;;14.48;50.00;98755.97;5017656;28;20044;-87
2024/02/14 11:02:38;;;;;;;8.27;5.70;;;;;;;14.59;50.17;98781.25;5017819;28;20112;-85
2024/02/14 11:05:04;;;;;;;8.23;5.63;;;;;;;14.57;50.08;98780.56;5017298;28;20037;-83
2024/02/14 11:07:31;;;;;;;9.15;5.88;;;;;;;14.53;50.07;98776.56;5015976;28;20061;-83
2024/02/14 11:10:06;;;;;;;10.85;7.85;;;;;;;14.41;50.04;98766.22;5016473;28;20033;-81
2024/02/14 11:12:36;;;;;;;14.80;9.73;;;;;;;14.47;50.28;98783.22;5019107;28;20034;-87
2024/02/14 11:15:10;;;;;;;14.00;10.15;;;;;;;14.44;50.01;98781.69;5035672;28;20039;-89
2024/02/14 11:17:36;;;;;;;12.82;9.38;;;;;;;14.43;49.92;98785.28;5020026;28;20183;-88
2024/02/14 11:20:14;;;;;;;14.52;10.05;;;;;;;14.36;50.21;98772.84;5018086;28;20220;-88
2024/02/14 11:22:40;;;;;;;13.07;9.35;;;;;;;14.42;50.03;98788.91;5017211;28;20056;-87
2024/02/14 11:25:18;;;;;;;13.10;9.10;;;;;;;14.42;50.27;98780.16;5017947;28;20034;-89
2024/02/14 11:27:47;;;;;;;12.48;8.85;;;;;;;14.40;50.09;98772.44;5017222;28;20041;-89